Time;durP1;ratioP1;P1;durP2;ratioP2;P2;SDS_P1;SDS_P2;PMS_P1;PMS_P2;Temp;Humidity;BMP_temperature;BMP_pressure;BME280_temperature;BME280_humidity;BME280_pressure;Samples;Min_cycle;Max_cycle;Signal;HPM_P1;HPM_P2
2021/03/04 00:05:39;;;;;;;153.00;69.90;;;;;;;3.65;69.26;99487.06;4180035;84;21232;-85
2021/03/04 00:11:41;;;;;;;170.85;70.08;;;;;;;3.64;69.58;99487.38;4180247;84;21365;-85
2021/03/04 00:17:47;;;;;;;159.57;64.80;;;;;;;3.57;69.35;99488.42;4187969;83;21225;-86
2021/03/04 00:23:49;;;;;;;148.60;61.08;;;;;;;3.50;69.59;99469.94;4151954;83;21724;-85
2021/03/04 00:29:50;;;;;;;130.90;59.10;;;;;;;3.40;70.91;99466.17;4186677;83;21787;-86
2021/03/04 00:35:52;;;;;;;124.87;55.75;;;;;;;3.24;71.66;99469.11;4184676;83;21236;-85
2021/03/04 00:41:54;;;;;;;130.22;54.30;;;;;;;3.18;70.77;99464.94;4179922;83;21217;-85
2021/03/04 00:47:55;;;;;;;111.08;51.30;;;;;;;3.16;71.09;99457.13;4153106;83;21212;-86
2021/03/04 00:53:57;;;;;;;113.37;50.33;;;;;;;3.22;72.29;99445.63;4162380;83;21347;-84
2021/03/04 00:59:58;;;;;;;113.55;50.15;;;;;;;3.22;72.52;99437.51;4175208;83;21237;-85
2021/03/04 01:06:00;;;;;;;106.20;47.40;;;;;;;3.22;72.02;99426.69;4148419;85;21205;-85
2021/03/04 01:12:02;;;;;;;102.67;45.92;;;;;;;3.20;72.11;99417.53;4150967;85;21198;-85
2021/03/04 01:18:06;;;;;;;106.70;46.42;;;;;;;3.26;71.88;99406.56;4173340;83;21145;-85
2021/03/04 01:24:08;;;;;;;94.42;42.27;;;;;;;3.17;71.55;99392.47;4213236;83;22552;-84
2021/03/04 01:30:12;;;;;;;104.03;45.92;;;;;;;3.10;72.17;99391.35;4204105;82;21698;-86
2021/03/04 01:36:13;;;;;;;95.70;44.18;;;;;;;2.82;71.74;99379.17;4203843;83;21191;-85
2021/03/04 01:42:15;;;;;;;104.10;47.65;;;;;;;2.72;71.56;99371.38;4140257;84;21785;-86
2021/03/04 01:48:17;;;;;;;115.70;50.85;;;;;;;2.50;71.66;99372.81;4129960;85;21685;-85
2021/03/04 01:54:18;;;;;;;131.25;55.50;;;;;;;2.38;71.98;99361.81;4080023;85;21245;-85
2021/03/04 02:00:21;;;;;;;131.50;55.67;;;;;;;2.34;72.07;99354.88;4061294;85;22192;-86
2021/03/04 02:06:34;;;;;;;130.20;56.42;;;;;;;2.29;72.24;99345.55;4076363;85;21357;-85
2021/03/04 02:12:50;;;;;;;125.45;56.00;;;;;;;2.19;72.17;99345.86;4074378;85;21250;-85
2021/03/04 02:19:01;;;;;;;125.33;53.48;;;;;;;2.17;72.16;99346.70;4073420;85;21236;-88
2021/03/04 02:25:15;;;;;;;105.30;47.60;;;;;;;2.16;72.58;99351.07;4074709;85;21190;-87
2021/03/04 02:31:17;;;;;;;98.67;42.73;;;;;;;2.12;72.66;99331.98;4068572;85;21238;-85
2021/03/04 02:37:22;;;;;;;91.25;42.38;;;;;;;2.21;72.91;99326.06;4075628;85;21223;-85
2021/03/04 02:43:25;;;;;;;94.90;46.28;;;;;;;2.24;73.40;99314.63;4083495;85;21245;-86
2021/03/04 02:49:28;;;;;;;90.75;41.73;;;;;;;2.20;73.44;99304.77;4077945;85;21197;-88
2021/03/04 02:55:32;;;;;;;97.82;44.18;;;;;;;2.19;73.45;99290.48;4074364;85;21251;-86
2021/03/04 03:01:35;;;;;;;88.20;40.95;;;;;;;2.19;73.62;99287.78;4071920;85;21205;-85
2021/03/04 03:07:40;;;;;;;138.07;54.60;;;;;;;2.15;73.38;99275.19;4084358;85;21219;-86
2021/03/04 03:13:46;;;;;;;81.92;37.58;;;;;;;2.02;73.54;99269.36;4057647;86;21230;-86
2021/03/04 03:19:47;;;;;;;84.10;37.98;;;;;;;1.85;73.39;99263.90;3998595;87;21224;-85
2021/03/04 03:25:49;;;;;;;80.77;36.13;;;;;;;1.71;73.64;99262.63;4066154;86;21396;-85
2021/03/04 03:31:53;;;;;;;81.82;36.88;;;;;;;1.54;73.78;99245.00;3983202;88;21685;-85
2021/03/04 03:37:59;;;;;;;97.97;44.73;;;;;;;1.54;73.78;99245.00;4063097;86;21380;-85
2021/03/04 03:44:01;;;;;;;117.25;52.45;;;;;;;1.42;74.02;99255.58;3985382;88;21185;-86
2021/03/04 03:50:04;;;;;;;116.88;53.65;;;;;;;1.33;73.42;99246.64;4050045;86;21239;-86
2021/03/04 03:56:06;;;;;;;104.80;46.45;;;;;;;0.92;74.29;99242.80;4069704;84;26958;-86
2021/03/04 04:02:09;;;;;;;126.47;57.03;;;;;;;0.87;74.58;99247.50;4140160;84;22184;-85
2021/03/04 04:08:14;;;;;;;114.97;51.20;;;;;;;0.73;74.28;99215.22;4165629;84;21277;-85
2021/03/04 04:14:16;;;;;;;100.62;48.45;;;;;;;0.71;74.76;99225.50;4032264;86;21252;-87
2021/03/04 04:20:20;;;;;;;114.85;49.70;;;;;;;0.71;74.76;99225.50;4150836;84;21228;-85
2021/03/04 04:26:22;;;;;;;109.87;49.77;;;;;;;0.76;74.85;99213.80;4153108;84;21232;-85
2021/03/04 04:32:23;;;;;;;103.67;49.25;;;;;;;0.76;74.98;99196.28;4153005;84;21243;-85
2021/03/04 04:38:25;;;;;;;115.82;46.05;;;;;;;0.73;75.18;99190.16;4151160;84;21229;-86
2021/03/04 04:44:27;;;;;;;115.45;50.80;;;;;;;0.79;75.67;99195.13;4151017;84;22607;-85
2021/03/04 04:50:28;;;;;;;118.80;54.27;;;;;;;0.69;76.15;99184.58;4152636;84;21408;-86
2021/03/04 04:56:30;;;;;;;115.42;50.88;;;;;;;0.64;75.71;99164.52;4154242;84;26646;-86
2021/03/04 05:02:31;;;;;;;104.95;47.30;;;;;;;0.64;75.71;99164.52;4134723;84;21748;-85
2021/03/04 05:08:33;;;;;;;88.37;40.50;;;;;;;0.70;75.88;99157.09;4140311;84;21354;-86
2021/03/04 05:14:34;;;;;;;97.88;45.52;;;;;;;0.71;75.98;99138.47;4127096;84;22162;-85
2021/03/04 05:20:36;;;;;;;84.90;39.10;;;;;;;0.72;75.90;99133.34;4138846;84;21200;-85
2021/03/04 05:26:38;;;;;;;91.80;40.98;;;;;;;0.66;76.12;99129.96;4134199;84;21663;-85
2021/03/04 05:32:39;;;;;;;106.83;46.63;;;;;;;0.70;76.43;99118.83;4121767;85;21175;-85
2021/03/04 05:38:41;;;;;;;89.50;41.15;;;;;;;0.78;76.09;99114.05;4132140;84;21227;-85
2021/03/04 05:44:43;;;;;;;83.33;38.55;;;;;;;0.68;76.06;99111.59;4138142;84;22217;-88
2021/03/04 05:50:50;;;;;;;79.35;38.80;;;;;;;0.62;76.30;99116.87;4128896;84;21332;-86
2021/03/04 05:56:53;;;;;;;97.37;43.13;;;;;;;0.63;76.38;99114.41;4130972;85;21224;-86
2021/03/04 06:02:54;;;;;;;78.92;36.50;;;;;;;0.74;76.77;99110.37;4137028;84;22792;-87
2021/03/04 06:08:58;;;;;;;81.78;37.88;;;;;;;0.74;76.77;99110.37;4127357;85;21875;-85
2021/03/04 06:15:00;;;;;;;90.97;39.63;;;;;;;0.84;77.21;99119.55;4144984;84;21198;-85
2021/03/04 06:21:02;;;;;;;92.45;42.03;;;;;;;1.08;76.89;99119.21;4187410;83;21249;-85
2021/03/04 06:27:05;;;;;;;107.83;48.85;;;;;;;1.07;77.23;99122.99;4188536;83;21194;-85
2021/03/04 06:33:12;;;;;;;128.32;52.70;;;;;;;1.15;77.32;99125.74;4196960;83;21381;-85
2021/03/04 06:39:13;;;;;;;114.28;53.55;;;;;;;1.15;77.32;99125.74;4200609;83;21797;-85
2021/03/04 06:45:25;;;;;;;104.75;48.52;;;;;;;1.41;77.76;99127.98;4203943;83;21564;-86
2021/03/04 06:51:27;;;;;;;99.80;47.10;;;;;;;1.72;78.81;99133.34;4203104;83;21242;-85
2021/03/04 06:57:29;;;;;;;96.32;42.38;;;;;;;2.06;78.75;99121.80;4194417;83;21392;-87
2021/03/04 07:03:51;;;;;;;90.57;42.13;;;;;;;2.49;78.84;99124.76;4197212;83;21227;-86
2021/03/04 07:09:56;;;;;;;86.20;40.12;;;;;;;2.88;78.48;99130.53;4193712;83;21678;-85
2021/03/04 07:16:14;;;;;;;91.57;44.03;;;;;;;3.24;78.07;99123.58;4171748;83;21340;-86
2021/03/04 07:22:21;;;;;;;94.72;43.98;;;;;;;3.57;78.05;99125.11;4100342;85;21264;-87
2021/03/04 07:28:25;;;;;;;92.45;40.98;;;;;;;3.94;77.66;99119.44;4125738;85;21365;-85
2021/03/04 07:34:26;;;;;;;83.62;40.35;;;;;;;4.43;77.41;99117.25;4124415;85;21235;-86
2021/03/04 07:40:28;;;;;;;90.07;41.02;;;;;;;4.86;77.05;99120.36;4126790;85;21941;-86
2021/03/04 07:46:46;;;;;;;70.95;34.35;;;;;;;5.22;76.54;99126.44;4124996;85;21225;-85
2021/03/04 07:52:48;;;;;;;76.42;36.73;;;;;;;5.58;76.18;99113.72;4122862;85;21179;-86
2021/03/04 07:58:50;;;;;;;73.85;35.33;;;;;;;6.07;75.83;99112.60;4123658;85;21737;-85
2021/03/04 08:05:04;;;;;;;67.80;34.23;;;;;;;6.77;75.02;99100.81;4123787;85;21649;-86
2021/03/04 08:11:06;;;;;;;66.10;32.58;;;;;;;7.54;74.26;99083.23;4121541;85;21215;-85
2021/03/04 08:17:08;;;;;;;58.20;29.95;;;;;;;8.25;73.02;99082.94;4124420;85;21335;-85
2021/03/04 08:23:10;;;;;;;57.50;30.27;;;;;;;8.50;72.77;99070.61;4124238;85;21230;-86
2021/03/04 08:29:13;;;;;;;63.65;30.02;;;;;;;8.63;71.45;99072.02;4120821;85;21728;-87
2021/03/04 08:35:19;;;;;;;63.98;29.75;;;;;;;8.69;71.16;99056.94;4117665;85;21238;-86
2021/03/04 08:41:22;;;;;;;;;;;;;;;8.76;70.28;99060.38;4108904;83;29891;-85
2021/03/04 08:47:24;;;;;;;63.87;31.95;;;;;;;8.95;68.71;99052.17;4100673;85;20305;-89
2021/03/04 08:53:28;;;;;;;63.17;31.82;;;;;;;9.11;68.72;99050.89;4103919;85;21240;-86
2021/03/04 08:59:31;;;;;;;65.20;32.98;;;;;;;9.28;68.85;99050.44;4101351;85;21251;-87
2021/03/04 09:05:32;;;;;;;71.82;34.20;;;;;;;9.69;68.14;99045.22;4106565;85;21671;-87
2021/03/04 09:11:35;;;;;;;66.65;34.27;;;;;;;10.29;67.34;99044.94;4100967;85;21804;-87
2021/03/04 09:17:42;;;;;;;72.42;38.60;;;;;;;10.54;66.86;99044.66;4151284;83;21199;-86
2021/03/04 09:23:45;;;;;;;61.90;34.88;;;;;;;10.60;65.81;99043.16;4197185;83;21239;-86
2021/03/04 09:29:46;;;;;;;67.62;37.08;;;;;;;10.81;65.27;99042.05;4191306;83;22126;-87
2021/03/04 09:36:04;;;;;;;69.75;37.03;;;;;;;11.13;65.00;99039.03;4125368;84;21208;-87
2021/03/04 09:42:06;;;;;;;74.07;39.63;;;;;;;11.47;64.58;99030.72;4120911;84;21347;-89
2021/03/04 09:48:08;;;;;;;70.65;38.63;;;;;;;11.67;63.20;99023.84;4188075;83;21220;-87
2021/03/04 09:54:10;;;;;;;69.62;38.88;;;;;;;11.57;63.37;99023.97;4194809;83;21210;-87
2021/03/04 10:00:20;;;;;;;66.67;38.90;;;;;;;11.68;61.79;99017.98;4187547;83;21212;-88
2021/03/04 10:06:22;;;;;;;72.05;39.90;;;;;;;11.76;62.31;99014.72;4189544;83;22288;-87
2021/03/04 10:12:24;;;;;;;76.67;40.38;;;;;;;11.82;61.23;99011.82;4189078;83;21655;-88
2021/03/04 10:18:26;;;;;;;79.50;42.30;;;;;;;11.85;62.15;99006.36;4169821;83;21229;-88
2021/03/04 10:24:28;;;;;;;84.58;43.52;;;;;;;12.03;60.35;99006.44;4157954;84;21125;-88
2021/03/04 10:30:32;;;;;;;74.22;40.95;;;;;;;12.14;61.40;99009.45;4153511;84;21209;-87
2021/03/04 10:36:35;;;;;;;73.60;41.73;;;;;;;11.85;60.15;99011.84;4151524;84;21209;-87
2021/03/04 10:42:37;;;;;;;80.05;43.75;;;;;;;11.70;61.08;98995.08;4152961;84;21189;-88
2021/03/04 10:48:39;;;;;;;75.22;42.58;;;;;;;11.50;60.32;98979.23;4155059;84;21788;-87
2021/03/04 10:54:40;;;;;;;75.03;41.68;;;;;;;11.48;60.43;98981.59;4151788;84;21181;-87
2021/03/04 11:00:42;;;;;;;71.35;39.25;;;;;;;11.57;60.12;98967.77;4154656;84;21188;-87
2021/03/04 11:06:44;;;;;;;73.65;41.53;;;;;;;11.60;60.19;98970.31;4155447;81;42158;-88
2021/03/04 11:12:47;;;;;;;78.40;43.45;;;;;;;11.67;59.83;98962.15;4154093;84;21240;-87
2021/03/04 11:18:49;;;;;;;72.78;40.52;;;;;;;11.85;59.20;98943.85;4170987;83;22602;-87
2021/03/04 11:24:51;;;;;;;74.17;40.20;;;;;;;11.83;58.91;98943.44;4185127;83;21759;-88
2021/03/04 11:30:52;;;;;;;78.70;43.68;;;;;;;11.77;59.14;98936.18;4182736;83;21775;-87
2021/03/04 11:36:54;;;;;;;75.97;40.15;;;;;;;11.69;58.24;98927.71;4189731;83;21370;-87
2021/03/04 11:42:56;;;;;;;66.45;37.42;;;;;;;11.50;58.70;98927.95;4183990;83;21216;-87
2021/03/04 11:48:57;;;;;;;69.15;38.38;;;;;;;11.54;58.66;98909.55;4188097;83;21664;-88
2021/03/04 11:54:59;;;;;;;74.70;38.85;;;;;;;11.48;58.61;98899.36;4183115;83;21204;-87
2021/03/04 12:01:00;;;;;;;66.20;37.00;;;;;;;11.57;58.62;98889.63;4188212;83;21498;-88
2021/03/04 12:07:02;;;;;;;67.53;36.68;;;;;;;11.65;58.22;98876.16;4195679;83;21744;-88
2021/03/04 12:13:06;;;;;;;72.25;38.48;;;;;;;11.75;58.21;98874.64;4194581;83;21116;-89
2021/03/04 12:19:07;;;;;;;64.80;35.10;;;;;;;11.59;58.39;98870.82;4171600;83;21192;-89
2021/03/04 12:25:09;;;;;;;65.15;36.35;;;;;;;11.51;58.25;98869.81;4175869;83;21188;-89
2021/03/04 12:31:11;;;;;;;72.20;37.80;;;;;;;11.39;58.54;98860.52;4163313;83;21169;-87
2021/03/04 12:37:13;;;;;;;70.57;35.85;;;;;;;11.32;58.24;98849.53;4161826;83;21217;-87
2021/03/04 12:43:14;;;;;;;73.17;37.75;;;;;;;11.14;58.63;98849.42;4159236;83;21209;-87
2021/03/04 12:49:16;;;;;;;70.85;37.98;;;;;;;11.09;58.79;98843.72;4158700;83;21659;-89
2021/03/04 12:55:18;;;;;;;64.53;37.55;;;;;;;11.06;58.81;98836.84;4158154;83;21655;-87
2021/03/04 13:01:20;;;;;;;72.50;38.45;;;;;;;11.13;58.70;98828.69;4169890;83;21221;-87
2021/03/04 13:07:21;;;;;;;64.40;34.18;;;;;;;11.12;58.66;98825.72;4164273;83;72415;-87
2021/03/04 13:13:24;;;;;;;68.42;36.45;;;;;;;11.09;58.89;98822.38;4180940;83;21182;-87
2021/03/04 13:19:26;;;;;;;67.42;35.00;;;;;;;11.08;58.28;98816.70;4186201;83;21169;-87
2021/03/04 13:25:27;;;;;;;68.78;37.30;;;;;;;10.99;58.60;98810.19;4206630;83;21664;-87
2021/03/04 13:31:29;;;;;;;65.47;35.38;;;;;;;11.04;58.43;98801.61;4205802;83;21965;-87
2021/03/04 13:37:31;;;;;;;57.85;33.63;;;;;;;11.11;58.87;98792.66;4204629;83;21731;-89
2021/03/04 13:43:32;;;;;;;58.75;32.65;;;;;;;11.15;58.59;98785.84;4192284;83;21243;-88
2021/03/04 13:49:34;;;;;;;62.00;33.48;;;;;;;11.14;58.00;98783.67;4197542;83;22031;-87
2021/03/04 13:55:37;;;;;;;73.25;33.35;;;;;;;11.03;58.15;98778.14;4201782;83;21217;-88
2021/03/04 14:01:39;;;;;;;64.00;34.43;;;;;;;10.99;57.99;98778.69;4198719;83;21195;-89
2021/03/04 14:07:41;;;;;;;67.70;33.33;;;;;;;10.84;58.01;98777.05;4202760;82;21623;-87
2021/03/04 14:13:44;;;;;;;62.17;35.50;;;;;;;10.76;58.18;98767.78;4205098;82;21383;-87
2021/03/04 14:19:46;;;;;;;65.65;33.25;;;;;;;10.71;58.33;98757.21;4106195;81;30547;-87
2021/03/04 14:25:47;;;;;;;58.83;32.23;;;;;;;10.64;58.43;98755.20;4093250;85;21534;-86
2021/03/04 14:31:49;;;;;;;63.80;32.98;;;;;;;10.55;58.34;98758.06;4033211;87;21353;-87
2021/03/04 14:37:50;;;;;;;58.28;33.35;;;;;;;10.47;58.54;98752.33;4032109;87;21907;-86
2021/03/04 14:43:52;;;;;;;65.80;36.03;;;;;;;10.39;58.96;98740.55;4067954;86;21353;-86
2021/03/04 14:49:54;;;;;;;65.15;35.55;;;;;;;10.34;59.10;98744.20;4064702;86;21242;-87
2021/03/04 14:55:55;;;;;;;64.17;34.95;;;;;;;10.26;59.34;98734.37;4075754;86;21242;-87
2021/03/04 15:01:58;;;;;;;68.12;35.30;;;;;;;10.19;59.79;98725.55;4066286;86;21231;-90
2021/03/04 15:07:59;;;;;;;76.72;39.20;;;;;;;10.11;59.94;98723.12;4091001;85;22148;-87
2021/03/04 15:14:01;;;;;;;70.00;37.33;;;;;;;10.02;60.24;98717.16;4091710;85;21200;-88
2021/03/04 15:20:07;;;;;;;76.80;41.02;;;;;;;9.92;60.52;98714.53;4080064;85;21155;-88
2021/03/04 15:26:09;;;;;;;76.80;39.18;;;;;;;9.85;60.89;98700.78;4074319;86;21630;-88
2021/03/04 15:32:11;;;;;;;76.37;40.28;;;;;;;9.78;61.18;98702.67;4073132;86;21797;-87
2021/03/04 15:38:12;;;;;;;73.22;39.63;;;;;;;9.68;61.61;98702.77;4078848;86;21245;-87
2021/03/04 15:44:14;;;;;;;77.27;37.75;;;;;;;9.57;62.14;98705.20;4015091;87;21285;-87
2021/03/04 15:50:16;;;;;;;71.85;37.95;;;;;;;9.43;62.60;98698.98;4072942;86;21230;-88
2021/03/04 15:56:18;;;;;;;79.37;39.15;;;;;;;9.37;62.97;98703.22;4066393;86;21258;-86
2021/03/04 16:02:20;;;;;;;84.20;43.92;;;;;;;9.29;63.43;98709.76;4062242;86;21368;-88
2021/03/04 16:08:22;;;;;;;82.53;43.02;;;;;;;9.18;63.75;98698.72;4073179;86;21829;-86
2021/03/04 16:14:25;;;;;;;78.85;42.75;;;;;;;9.07;64.10;98711.46;4017119;87;21580;-89
2021/03/04 17:49:41;;;;;;;122.72;62.58;;;;;;;7.51;72.21;98705.32;4579194;75;22313;-87
2021/03/04 17:55:43;;;;;;;128.82;62.15;;;;;;;7.47;71.69;98696.88;4487407;78;21191;-87
2021/03/04 18:01:45;;;;;;;113.90;58.55;;;;;;;7.56;72.19;98679.12;4483864;78;21172;-87
2021/03/04 18:07:49;;;;;;;122.80;61.50;;;;;;;7.54;72.57;98683.37;4485831;78;21633;-87
2021/03/04 18:13:51;;;;;;;122.58;57.83;;;;;;;7.62;72.66;98685.08;4492089;78;21164;-87
2021/03/04 18:19:53;;;;;;;120.25;59.55;;;;;;;7.69;72.65;98685.18;4489370;78;21191;-87
2021/03/04 18:25:55;;;;;;;117.85;60.05;;;;;;;7.76;72.77;98674.42;4484155;78;21317;-87
2021/03/04 18:31:56;;;;;;;124.12;59.45;;;;;;;7.80;72.99;98668.44;4354964;77;9999932;-88
2021/03/04 18:37:58;;;;;;;112.08;59.53;;;;;;;7.81;73.02;98661.27;4479235;78;21323;-86
2021/03/04 18:43:59;;;;;;;119.25;59.53;;;;;;;7.80;73.29;98666.52;4482709;77;21180;-87
2021/03/04 18:50:02;;;;;;;115.40;61.05;;;;;;;7.79;73.54;98663.59;4490175;78;21186;-86
2021/03/04 18:56:05;;;;;;;117.75;61.80;;;;;;;7.77;73.91;98657.70;4483025;78;21188;-86
2021/03/04 19:02:06;;;;;;;116.97;63.90;;;;;;;7.74;74.36;98644.81;4491186;78;21668;-86
2021/03/04 19:08:08;;;;;;;126.90;62.75;;;;;;;7.66;74.61;98646.41;4494202;78;21178;-86
2021/03/04 19:14:09;;;;;;;119.33;61.68;;;;;;;7.58;74.80;98646.10;4495773;78;21164;-86
2021/03/04 19:20:13;;;;;;;120.17;62.08;;;;;;;7.56;75.12;98648.39;4503254;78;21319;-86
2021/03/04 19:26:15;;;;;;;115.05;60.88;;;;;;;7.56;75.31;98651.88;4493166;78;21234;-87
2021/03/04 19:32:16;;;;;;;131.72;71.07;;;;;;;7.49;75.83;98652.34;4494749;78;21206;-85
2021/03/04 19:38:18;;;;;;;138.20;68.80;;;;;;;7.44;76.25;98646.63;4488199;78;21148;-87
2021/03/04 19:44:20;;;;;;;128.55;63.25;;;;;;;7.39;76.50;98652.36;4488265;78;21234;-85
2021/03/04 19:50:22;;;;;;;123.42;63.42;;;;;;;7.39;76.63;98646.15;4484526;78;21958;-87
2021/03/04 19:56:25;;;;;;;121.53;64.80;;;;;;;7.41;76.76;98645.98;4484364;78;21572;-88
2021/03/04 20:02:27;;;;;;;135.12;64.97;;;;;;;7.44;76.94;98644.46;4479614;78;21203;-87
2021/03/04 20:08:32;;;;;;;127.65;67.72;;;;;;;7.38;77.48;98641.83;4486090;78;21181;-86
2021/03/04 20:14:32;;;;;;;121.60;60.73;;;;;;;7.27;77.75;98648.45;4500239;77;21707;-86
2021/03/04 20:20:33;;;;;;;124.07;61.65;;;;;;;7.27;78.16;98643.57;4506189;78;21773;-87
2021/03/04 20:26:35;;;;;;;120.97;63.05;;;;;;;7.29;78.17;98645.37;4497726;78;21321;-88
2021/03/04 20:32:37;;;;;;;112.37;58.73;;;;;;;7.32;78.29;98643.28;4462734;78;21128;-87
2021/03/04 20:38:40;;;;;;;119.40;59.23;;;;;;;7.28;78.55;98639.72;4495413;78;21653;-88
2021/03/04 20:44:41;;;;;;;108.55;57.62;;;;;;;7.27;78.73;98638.13;4480901;78;21317;-85
2021/03/04 20:50:44;;;;;;;119.00;60.33;;;;;;;7.26;78.78;98631.91;4494706;78;21180;-86
2021/03/04 20:56:45;;;;;;;114.32;56.55;;;;;;;7.24;79.12;98642.38;4492957;78;21209;-88
2021/03/04 21:02:47;;;;;;;125.90;61.60;;;;;;;7.18;79.39;98641.66;4497373;78;21301;-86
2021/03/04 21:08:49;;;;;;;111.77;54.90;;;;;;;7.18;79.53;98632.93;4488127;78;21342;-87
2021/03/04 21:14:50;;;;;;;113.35;58.28;;;;;;;7.23;79.39;98620.39;4499606;77;21157;-87
2021/03/04 21:20:52;;;;;;;121.45;59.08;;;;;;;7.18;80.03;98628.84;4496053;78;21861;-87
2021/03/04 21:26:54;;;;;;;123.50;59.45;;;;;;;7.11;80.07;98621.13;4491225;78;21230;-86
2021/03/04 21:32:55;;;;;;;132.78;67.35;;;;;;;7.06;80.22;98614.61;4485939;78;21675;-87
2021/03/04 21:38:57;;;;;;;122.35;63.05;;;;;;;7.05;80.25;98621.19;4489988;78;21166;-88
2021/03/04 21:45:00;;;;;;;111.37;57.60;;;;;;;7.02;80.46;98615.90;4493092;77;21683;-86
2021/03/04 21:51:01;;;;;;;121.02;63.45;;;;;;;6.94;80.79;98616.14;4484907;78;21287;-86
2021/03/04 21:57:03;;;;;;;101.10;51.60;;;;;;;6.86;80.76;98609.75;4484656;78;21167;-87
2021/03/04 22:03:06;;;;;;;109.42;54.15;;;;;;;6.56;82.13;98622.94;4486080;78;21180;-86
2021/03/04 22:09:07;;;;;;;109.30;55.35;;;;;;;5.92;80.99;98625.59;4483858;78;21578;-86
2021/03/04 22:15:10;;;;;;;105.55;53.65;;;;;;;5.61;81.01;98635.11;4488698;78;21634;-85
2021/03/04 22:21:12;;;;;;;108.15;53.95;;;;;;;5.46;81.01;98655.47;4480506;78;21197;-86
2021/03/04 22:27:14;;;;;;;118.02;57.17;;;;;;;5.37;80.97;98669.78;4487723;78;21197;-86
2021/03/04 22:33:15;;;;;;;113.70;55.48;;;;;;;5.34;81.22;98674.55;4486283;78;21944;-88
2021/03/04 22:39:17;;;;;;;109.03;54.20;;;;;;;5.22;81.05;98673.23;4487934;78;21168;-86
2021/03/04 22:45:19;;;;;;;117.87;59.13;;;;;;;5.16;81.24;98666.48;4482698;78;21160;-86
2021/03/04 22:51:21;;;;;;;130.07;60.88;;;;;;;5.10;81.80;98680.88;4502498;78;21181;-86
2021/03/04 22:57:23;;;;;;;113.75;56.98;;;;;;;4.95;81.60;98691.69;4500783;78;21185;-86
2021/03/04 23:03:25;;;;;;;119.45;58.50;;;;;;;4.84;81.89;98690.02;4496900;78;21659;-87
2021/03/04 23:09:27;;;;;;;126.90;58.52;;;;;;;4.79;82.10;98699.19;4502840;78;21193;-86
2021/03/04 23:15:29;;;;;;;119.62;58.28;;;;;;;4.71;82.04;98697.39;4502967;78;21184;-86
2021/03/04 23:21:31;;;;;;;114.82;57.15;;;;;;;4.61;82.18;98699.25;4499763;78;21776;-86
2021/03/04 23:27:33;;;;;;;118.02;58.45;;;;;;;4.66;82.29;98700.38;4496652;78;21744;-86
2021/03/04 23:33:34;;;;;;;125.45;57.10;;;;;;;4.61;82.34;98697.09;4484777;78;22037;-86
2021/03/04 23:39:36;;;;;;;111.35;55.28;;;;;;;4.57;82.41;98714.60;4497419;78;21169;-86
2021/03/04 23:45:39;;;;;;;106.27;52.05;;;;;;;4.52;82.87;98732.48;4483354;78;21334;-86
2021/03/04 23:51:41;;;;;;;101.95;51.15;;;;;;;4.32;82.77;98721.19;4509063;78;21208;-86
2021/03/04 23:57:43;;;;;;;102.53;52.98;;;;;;;4.14;83.08;98729.34;4507056;78;21647;-86
